Latest Weather Observations for Mount Boyce

IDN60801

Issued at 9:03 pm EST Tuesday 21 April 2015 (issued every 30 minutes, with the page automatically refreshed every 10 minutes)

About weather observations | Map of weather stations | Latest weather observations for NSW | Other Formats
Station Details ID: 063292 Name: MOUNT BOYCE AWS Lat: -33.62 Lon: 150.27 Height: 1080.0 m
Data from the previous 72 hours. | See also: Recent months at Mount Boyce
Date/Time
EST
Temp
°C
App
Temp
°C
Dew
Point
Rel
Hum
%
Delta-T
°C
Wind Press
QNH
hPa
Press
MSL
hPa
Rain
since 9 am
mm
Dir
 
Spd
km/h
Gust
km/h
Spd
kts
Gust
kts
21/09:00pm 6.7 0.6 6.4 98 0.1 SSW 28 48 15 26 - - 23.4
21/08:36pm 6.6 0.4 6.3 98 0.1 SSW 28 57 15 31 - - 23.2
21/08:30pm 6.6 0.1 6.3 98 0.1 SSW 30 54 16 29 - - 23.2
21/08:25pm 6.6 0.4 6.3 98 0.1 SSW 28 54 15 29 - - 23.2
21/08:21pm 6.5 1.1 6.2 98 0.1 SW 24 57 13 31 - - 23.2
21/08:02pm 6.5 -0.1 6.2 98 0.1 SSW 30 56 16 30 - - 22.8
21/08:00pm 6.5 -0.1 6.2 98 0.1 SSW 30 56 16 30 - - 22.8
21/07:55pm 6.4 0.6 6.1 98 0.1 SSW 26 46 14 25 - - 22.8
21/07:30pm 6.2 0.7 5.9 98 0.1 SW 24 43 13 23 - - 22.8
21/07:00pm 6.1 0.6 5.8 98 0.1 SW 24 44 13 24 - - 21.6
21/06:30pm 6.1 1.0 5.8 98 0.1 SSW 22 41 12 22 - - 15.8
21/06:00pm 6.1 1.0 5.8 98 0.1 SSW 22 46 12 25 - - 12.6
21/05:36pm 6.0 -0.3 5.7 98 0.1 SSW 28 54 15 29 - - 11.8
21/05:30pm 6.0 0.8 5.7 98 0.1 SSW 22 50 12 27 - - 11.6
21/05:00pm 6.2 0.7 5.8 97 0.2 SSW 24 43 13 23 - - 8.6
21/04:33pm 6.3 0.0 5.9 97 0.2 S 28 46 15 25 - - 7.2
21/04:31pm 6.3 0.0 5.9 97 0.2 S 28 46 15 25 - - 7.2
21/04:30pm 6.3 0.0 5.9 97 0.2 S 28 44 15 24 - - 6.8
21/04:20pm 6.3 0.0 5.9 97 0.2 S 28 63 15 34 - - 6.8
21/04:00pm 6.4 2.3 6.0 97 0.2 SSW 17 30 9 16 - - 6.6
21/03:34pm 6.4 1.6 5.8 96 0.3 S 20 37 11 20 - - 6.0
21/03:30pm 6.3 1.7 5.7 96 0.3 S 19 37 10 20 - - 5.8
21/03:18pm 6.3 1.1 5.6 95 0.3 S 22 41 12 22 - - 5.8
21/03:00pm 6.5 1.4 5.8 95 0.3 S 22 50 12 27 - - 5.6
21/02:58pm 6.5 1.4 5.8 95 0.3 S 22 50 12 27 - - 5.6
21/02:54pm 6.5 1.4 5.8 95 0.3 S 22 50 12 27 - - 5.6
21/02:44pm 6.6 1.1 5.9 95 0.3 S 24 46 13 25 - - 5.6
21/02:37pm 6.6 1.9 5.9 95 0.3 S 20 39 11 21 - - 5.4
21/02:30pm 6.6 0.7 5.9 95 0.3 S 26 48 14 26 - - 5.4
21/02:07pm 6.7 2.2 6.0 95 0.3 S 19 41 10 22 - - 4.8
21/02:00pm 6.7 1.9 5.8 94 0.4 S 20 46 11 25 - - 4.6
21/01:30pm 6.7 1.6 6.0 95 0.3 S 22 46 12 25 - - 4.6
21/01:00pm 6.6 1.9 6.0 96 0.3 S 20 43 11 23 - - 4.6
21/12:58pm 6.6 1.9 6.0 96 0.3 S 20 35 11 19 - - 4.6
21/12:47pm 6.6 0.4 6.2 97 0.2 S 28 54 15 29 - - 4.6
21/12:30pm 6.5 1.4 6.1 97 0.2 S 22 46 12 25 - - 4.2
21/12:17pm 6.5 1.0 5.9 96 0.3 S 24 52 13 28 - - 4.2
21/12:13pm 6.4 0.5 5.8 96 0.3 S 26 52 14 28 - - 4.2
21/12:03pm 6.4 0.1 5.8 96 0.3 S 28 54 15 29 - - 4.0
21/12:02pm 6.5 0.2 5.9 96 0.3 S 28 54 15 29 - - 4.0
21/12:00pm 6.4 0.9 5.8 96 0.3 SSW 24 44 13 24 - - 4.0
21/11:57am 6.3 0.8 5.7 96 0.3 SSW 24 43 13 23 - - 4.0
21/11:31am 6.6 0.4 6.0 96 0.3 S 28 56 15 30 - - 3.8
21/11:30am 6.6 0.7 6.0 96 0.3 SSE 26 56 14 30 - - 3.8
21/11:02am 6.6 0.4 6.0 96 0.3 SSE 28 54 15 29 - - 3.0
21/11:00am 6.6 0.7 6.0 96 0.3 SSE 26 54 14 29 - - 3.0
21/10:45am 6.6 -0.4 6.0 96 0.3 SSE 32 57 17 31 - - 2.2
21/10:40am 6.6 0.4 6.2 97 0.2 SSE 28 57 15 31 - - 2.2
21/10:39am 6.6 0.8 6.2 97 0.2 SSE 26 54 14 29 - - 2.2
21/10:30am 6.6 1.2 6.2 97 0.2 SSE 24 46 13 25 - - 2.0
21/10:00am 6.5 1.0 6.1 97 0.2 SSE 24 50 13 27 - - 1.4
21/09:48am 6.4 0.1 5.8 96 0.3 SSE 28 59 15 32 - - 0.6
21/09:47am 6.4 0.5 5.8 96 0.3 SSE 26 59 14 32 - - 0.6
21/09:46am 6.4 0.1 5.8 96 0.3 SSE 28 59 15 32 - - 0.6
21/09:39am 6.4 0.9 5.8 96 0.3 SSE 24 50 13 27 - - 0.4
21/09:30am 6.4 0.5 6.0 97 0.2 SSE 26 57 14 31 - - 0.4
21/09:00am 6.2 0.6 5.6 96 0.3 SSE 24 56 13 30 - - 105.2
21/08:49am 6.3 0.0 5.9 97 0.2 SSE 28 50 15 27 - - 104.8
21/08:45am 6.3 0.4 5.9 97 0.2 SSE 26 50 14 27 - - 104.8
21/08:44am 6.3 0.4 5.9 97 0.2 SSE 26 50 14 27 - - 104.8
21/08:30am 6.3 0.0 5.9 97 0.2 SSE 28 50 15 27 - - 104.6
21/08:03am 6.2 -0.1 5.8 97 0.2 S 28 65 15 35 - - 103.8
21/08:00am 6.2 0.3 5.8 97 0.2 SSE 26 56 14 30 - - 103.8
21/07:42am 6.2 -0.1 5.8 97 0.2 SSE 28 61 15 33 - - 103.0
21/07:30am 6.1 0.2 5.7 97 0.2 SSE 26 63 14 34 - - 102.6
21/07:07am 6.2 -0.1 5.8 97 0.2 SSE 28 50 15 27 - - 101.2
21/07:00am 6.2 1.1 5.8 97 0.2 SSE 22 50 12 27 - - 100.4
21/06:34am 6.1 -0.2 5.7 97 0.2 SE 28 46 15 25 - - 97.4
21/06:30am 6.1 0.2 5.8 98 0.1 SSE 26 46 14 25 - - 97.2
21/06:00am 6.4 1.7 6.1 98 0.1 SSE 20 52 11 28 - - 94.2
21/05:31am 6.5 0.3 6.2 98 0.1 SE 28 61 15 33 - - 91.8
21/05:30am 6.5 0.7 6.2 98 0.1 SE 26 56 14 30 - - 91.8
21/05:00am 6.5 1.4 6.2 98 0.1 SE 22 44 12 24 - - 88.6
21/04:31am 6.3 0.1 6.0 98 0.1 SSE 28 52 15 28 - - 86.4
21/04:30am 6.2 0.3 5.9 98 0.1 SE 26 52 14 28 - - 86.4
21/04:02am 6.6 0.4 6.3 98 0.1 SE 28 48 15 26 - - 84.2
21/04:00am 6.6 0.8 6.3 98 0.1 SE 26 48 14 26 - - 84.2
21/03:30am 6.6 1.2 6.3 98 0.1 SSE 24 48 13 26 - - 81.8
21/03:00am 6.9 2.3 6.6 98 0.1 SSE 20 41 11 22 - - 79.6
21/02:30am 7.1 2.2 6.8 98 0.1 SE 22 37 12 20 - - 77.4
21/02:00am 7.0 0.9 6.7 98 0.1 SE 28 52 15 28 - - 75.4
21/01:33am 7.1 1.0 6.8 98 0.1 SE 28 50 15 27 - - 74.4
21/01:30am 7.0 1.3 6.7 98 0.1 SE 26 50 14 27 - - 74.4
21/01:01am 7.3 1.3 7.0 98 0.1 SE 28 54 15 29 - - 72.8
21/01:00am 7.3 1.7 7.0 98 0.1 SE 26 54 14 29 - - 72.8
21/12:30am 7.4 1.8 7.1 98 0.1 SE 26 59 14 32 - - 71.2
21/12:19am 7.5 1.5 7.2 98 0.1 SE 28 54 15 29 - - 70.8
21/12:00am 7.6 3.2 7.3 98 0.1 SE 20 44 11 24 - - 69.6
 
Date/Time
EST
Temp
°C
App
Temp
°C
Dew
Point
Rel
Hum
%
Delta-T
°C
Wind Press
QNH
hPa
Press
MSL
hPa
Rain
since 9 am
mm
Dir
 
Spd
km/h
Gust
km/h
Spd
kts
Gust
kts
20/11:30pm 7.6 3.2 7.3 98 0.1 SE 20 41 11 22 - - 68.2
20/11:00pm 7.6 3.2 7.3 98 0.1 SSE 20 43 11 23 - - 66.2
20/10:30pm 7.6 3.4 7.3 98 0.1 SSE 19 35 10 19 - - 64.2
20/10:00pm 7.7 3.3 7.4 98 0.1 SE 20 43 11 23 - - 62.4
20/09:30pm 7.8 3.4 7.5 98 0.2 SSE 20 37 11 20 - - 61.0
20/09:00pm 7.9 3.5 7.6 98 0.2 SE 20 43 11 23 - - 57.6
20/08:30pm 7.8 3.6 7.5 98 0.2 SSE 19 39 10 21 - - 54.4
20/08:00pm 7.8 3.4 7.5 98 0.2 SSE 20 46 11 25 - - 51.0
20/07:30pm 7.6 4.1 7.3 98 0.1 SSE 15 24 8 13 - - 47.6
20/07:00pm 7.6 3.4 7.3 98 0.1 SSE 19 32 10 17 - - 43.6
20/06:30pm 7.4 4.6 7.1 98 0.1 S 11 20 6 11 - - 39.4
20/06:00pm 7.3 4.1 7.0 98 0.1 S 13 28 7 15 - - 35.6
20/05:30pm 7.4 4.6 7.1 98 0.1 SSW 11 20 6 11 - - 32.2
20/05:00pm 7.3 4.1 7.0 98 0.1 S 13 22 7 12 - - 29.6
20/04:30pm 7.3 3.4 7.0 98 0.1 S 17 28 9 15 - - 27.2
20/04:00pm 7.3 3.0 7.0 98 0.1 SSW 19 33 10 18 - - 24.6
20/03:30pm 7.4 2.9 7.1 98 0.1 S 20 41 11 22 - - 22.2
20/03:08pm 7.4 1.4 7.1 98 0.1 S 28 52 15 28 - - 20.6
20/03:00pm 7.4 3.1 7.1 98 0.1 SSW 19 33 10 18 - - 20.2
20/02:30pm 7.3 3.8 7.0 98 0.1 S 15 33 8 18 - - 17.4
20/02:00pm 7.2 3.3 6.9 98 0.1 SSW 17 33 9 18 - - 14.4
20/01:30pm 7.2 3.3 6.9 98 0.1 S 17 35 9 19 - - 11.2
20/01:00pm 7.2 2.7 6.9 98 0.1 SSE 20 33 11 18 - - 9.4
20/12:30pm 7.1 2.2 6.8 98 0.1 SSE 22 43 12 23 - - 8.4
20/12:00pm 7.2 2.9 6.9 98 0.1 SE 19 35 10 19 - - 7.6
20/11:30am 7.1 2.6 6.8 98 0.1 SSE 20 41 11 22 - - 7.0
20/11:12am 7.1 2.2 6.8 98 0.1 SSE 22 43 12 23 - - 6.6
20/11:00am 7.0 2.1 6.7 98 0.1 SE 22 39 12 21 - - 5.8
20/10:30am 6.9 2.9 6.6 98 0.1 SE 17 30 9 16 - - 3.8
20/10:00am 6.5 2.8 6.2 98 0.1 SSE 15 30 8 16 - - 2.2
20/09:37am 6.5 2.4 6.2 98 0.1 S 17 33 9 18 - - 1.2
20/09:35am 6.4 2.3 6.1 98 0.1 S 17 39 9 21 - - 1.2
20/09:30am 6.4 1.7 6.1 98 0.1 S 20 39 11 21 - - 0.8
20/09:00am 6.2 2.4 5.9 98 0.1 S 15 28 8 15 - - 9.4
20/08:30am 5.6 0.9 5.3 98 0.1 S 19 35 10 19 - - 8.2
20/08:00am 5.6 1.3 5.3 98 0.1 S 17 33 9 18 - - 7.6
20/07:30am 5.3 0.9 5.0 98 0.1 S 17 30 9 16 - - 6.8
20/07:00am 5.1 0.7 4.8 98 0.1 SSE 17 32 9 17 - - 6.6
20/06:30am 5.0 0.6 4.7 98 0.1 S 17 32 9 17 - - 6.4
20/06:00am 4.8 0.0 4.5 98 0.1 S 19 37 10 20 - - 5.6
20/05:30am 4.7 0.2 4.4 98 0.1 S 17 33 9 18 - - 5.4
20/05:00am 4.9 0.1 4.6 98 0.1 S 19 41 10 22 - - 5.2
20/04:30am 5.0 2.5 4.7 98 0.1 S 7 19 4 10 - - 5.2
20/04:00am 4.8 0.4 4.5 98 0.1 S 17 32 9 17 - - 4.8
20/03:32am 5.0 1.3 4.7 98 0.1 S 13 24 7 13 - - 4.8
20/03:30am 5.0 1.3 4.7 98 0.1 S 13 20 7 11 - - 4.8
20/03:00am 4.9 0.8 4.6 98 0.1 S 15 32 8 17 - - 4.4
20/02:30am 5.0 0.6 4.7 98 0.1 SSE 17 30 9 16 - - 3.6
20/02:00am 5.2 0.8 4.9 98 0.1 S 17 37 9 20 - - 3.2
20/01:30am 5.2 0.8 4.9 98 0.1 S 17 33 9 18 - - 2.8
20/01:00am 5.2 1.2 4.9 98 0.1 S 15 30 8 16 - - 2.8
20/12:30am 5.2 1.6 4.9 98 0.1 S 13 24 7 13 - - 2.6
20/12:00am 5.2 1.6 4.9 98 0.1 SSW 13 28 7 15 - - 2.6
 
Date/Time
EST
Temp
°C
App
Temp
°C
Dew
Point
Rel
Hum
%
Delta-T
°C
Wind Press
QNH
hPa
Press
MSL
hPa
Rain
since 9 am
mm
Dir
 
Spd
km/h
Gust
km/h
Spd
kts
Gust
kts
19/11:30pm 5.2 1.2 4.9 98 0.1 SSW 15 24 8 13 - - 2.2
19/11:00pm 5.1 1.5 4.8 98 0.1 S 13 24 7 13 - - 2.0
19/10:30pm 5.1 0.7 4.8 98 0.1 S 17 28 9 15 - - 1.8
19/10:00pm 5.1 1.8 4.8 98 0.1 SW 11 17 6 9 - - 1.8
19/09:30pm 5.1 1.4 4.7 97 0.2 SW 13 20 7 11 - - 1.2
19/09:00pm 5.2 0.8 4.8 97 0.2 S 17 26 9 14 - - 0.8
19/08:30pm 5.2 0.8 4.6 96 0.3 SSE 17 32 9 17 - - 0.6
19/08:01pm 6.1 2.5 5.2 94 0.4 S 13 24 7 13 - - 0.6
19/08:00pm 6.2 2.3 5.3 94 0.4 S 15 24 8 13 - - 0.6
19/07:30pm 8.5 6.6 7.7 95 0.4 E 7 17 4 9 - - 0.0
19/07:00pm 8.9 6.7 8.0 94 0.5 E 9 22 5 12 - - 0.0
19/06:30pm 9.5 7.4 8.3 92 0.6 E 9 15 5 8 - - 0.0
19/06:02pm 10.3 8.3 8.6 89 0.9 E 9 17 5 9 - - 0.0
19/06:00pm 10.4 8.4 8.5 88 1.0 E 9 17 5 9 - - 0.0
19/05:54pm 10.9 9.3 8.8 87 1.1 E 7 13 4 7 - - 0.0
19/05:30pm 11.5 10.7 6.6 72 2.5 CALM 0 4 0 2 - - 0.0
19/05:00pm 12.1 10.4 7.6 74 2.3 WNW 6 9 3 5 - - 0.0
19/04:30pm 13.1 12.3 6.5 64 3.4 CALM 0 0 0 0 - - 0.0
19/04:00pm 14.8 13.6 6.6 58 4.2 SW 2 7 1 4 - - 0.0
19/03:30pm 15.5 13.7 7.8 60 4.1 SSW 7 11 4 6 - - 0.0
19/03:00pm 14.8 12.8 7.1 60 4.0 S 7 13 4 7 - - 0.0
19/02:30pm 16.3 14.4 7.5 56 4.7 WSW 7 13 4 7 - - 0.0
19/02:00pm 15.4 12.1 6.4 55 4.6 W 13 17 7 9 - - 0.0
19/01:30pm 16.2 13.1 7.2 55 4.7 SW 13 20 7 11 - - 0.0
19/01:00pm 14.6 11.9 7.4 62 3.8 SSW 11 17 6 9 - - 0.0
19/12:30pm 13.6 11.3 7.4 66 3.2 SSW 9 17 5 9 - - 0.0
19/12:00pm 13.7 11.6 6.6 62 3.6 WSW 7 15 4 8 - - 0.0
19/11:30am 14.1 10.7 7.6 65 3.4 W 15 20 8 11 - - 0.0
19/11:00am 13.1 10.0 7.1 67 3.1 W 13 22 7 12 - - 0.0
19/10:30am 12.5 8.6 7.0 69 2.8 WSW 17 26 9 14 - - 0.0
19/10:00am 11.6 7.8 7.7 77 2.0 W 17 22 9 12 - - 0.0
19/09:30am 10.8 6.5 7.1 78 1.9 W 19 28 10 15 - - 0.0
19/09:00am 10.0 5.6 6.7 80 1.6 W 19 26 10 14 - - 5.4
19/08:30am 9.3 4.6 6.0 80 1.6 WSW 20 28 11 15 - - 5.4
19/08:00am 8.6 3.9 5.0 78 1.7 WSW 19 24 10 13 - - 5.4
19/07:30am 8.2 3.4 4.6 78 1.7 WSW 19 28 10 15 - - 5.4
19/07:00am 8.4 4.3 6.0 85 1.2 WSW 17 24 9 13 - - 5.4
19/06:30am 8.5 3.5 8.2 98 0.2 W 24 33 13 18 - - 5.4
19/06:29am 8.5 3.5 8.2 98 0.2 W 24 33 13 18 - - 5.4
19/06:00am 10.3 5.1 10.1 99 0.1 WSW 28 37 15 20 - - 5.4
19/05:30am 11.0 7.1 10.8 99 0.1 WSW 22 37 12 20 - - 5.4
19/05:00am 11.1 7.2 10.9 99 0.1 WSW 22 30 12 16 - - 5.2
19/04:30am 11.0 7.1 10.8 99 0.1 W 22 33 12 18 - - 5.2
19/04:20am 11.0 7.1 10.8 99 0.1 W 22 35 12 19 - - 5.2
19/04:00am 11.1 7.6 10.8 98 0.2 W 20 32 11 17 - - 5.2
19/03:30am 11.2 7.7 10.9 98 0.2 WSW 20 35 11 19 - - 5.2
19/03:00am 11.2 7.7 11.0 99 0.1 WSW 20 35 11 19 - - 5.2
19/02:30am 11.3 7.5 11.1 99 0.1 W 22 32 12 17 - - 5.2
19/02:25am 11.3 7.1 11.1 99 0.1 W 24 35 13 19 - - 5.2
19/02:00am 11.3 8.1 11.1 99 0.1 WSW 19 28 10 15 - - 5.2
19/01:30am 11.3 7.8 11.0 98 0.2 WSW 20 28 11 15 - - 5.2
19/01:00am 11.5 8.3 11.2 98 0.2 W 19 32 10 17 - - 5.2
19/12:57am 11.6 8.2 11.3 98 0.2 W 20 30 11 16 - - 5.2
19/12:45am 11.6 7.5 11.3 98 0.2 W 24 35 13 19 - - 5.2
19/12:30am 11.7 7.6 11.4 98 0.2 W 24 37 13 20 - - 5.2
19/12:05am 12.0 8.0 11.7 98 0.2 W 24 35 13 19 - - 5.2
19/12:00am 12.1 8.4 11.6 97 0.3 W 22 32 12 17 - - 5.2
 
Date/Time
EST
Temp
°C
App
Temp
°C
Dew
Point
Rel
Hum
%
Delta-T
°C
Wind Press
QNH
hPa
Press
MSL
hPa
Rain
since 9 am
mm
Dir
 
Spd
km/h
Gust
km/h
Spd
kts
Gust
kts
18/11:30pm 12.4 8.8 11.9 97 0.3 W 22 39 12 21 - - 5.2
18/11:00pm 12.5 8.5 11.9 96 0.3 W 24 37 13 20 - - 5.2
18/10:57pm 12.5 8.5 11.9 96 0.3 W 24 37 13 20 - - 5.2
18/10:30pm 12.5 8.5 11.9 96 0.3 W 24 37 13 20 - - 5.0
18/10:00pm 12.6 7.9 12.1 97 0.3 WNW 28 44 15 24 - - 5.0
18/09:39pm 12.7 8.5 12.4 98 0.2 W 26 46 14 25 - - 4.6
18/09:34pm 12.8 8.6 12.5 98 0.2 W 26 46 14 25 - - 4.6
18/09:30pm 12.8 9.0 12.5 98 0.2 W 24 39 13 21 - - 4.6
18/09:03pm 12.9 8.0 12.4 97 0.3 W 30 50 16 27 - - 4.2

Other Formats:

Comma delimited format used in spreadsheet applications
http://www.bom.gov.au/fwo/IDN60801/IDN60801.94743.axf

JavaScript Object Notation format (JSON) in row-major order
http://www.bom.gov.au/fwo/IDN60801/IDN60801.94743.json